Time;durP1;ratioP1;P1;durP2;ratioP2;P2;SDS_P1;SDS_P2;PMS_P1;PMS_P2;Temp;Humidity;BMP_temperature;BMP_pressure;BME280_temperature;BME280_humidity;BME280_pressure;Samples;Min_cycle;Max_cycle;Signal;HPM_P1;HPM_P2
2024/03/04 00:00:48;;;;;;;13.85;8.75;;;9.70;64.00;;;4.94;100.00;94304.47;4971753;28;20121;-56
2024/03/04 00:03:15;;;;;;;16.85;8.68;;;9.70;64.20;;;4.98;100.00;94311.63;4997966;28;20056;-54
2024/03/04 00:05:41;;;;;;;11.57;8.27;;;9.70;64.40;;;4.99;100.00;94312.44;4992830;28;20037;-54
2024/03/04 00:08:07;;;;;;;14.95;9.15;;;9.70;64.50;;;5.03;100.00;94316.91;4990737;28;20018;-54
2024/03/04 00:10:33;;;;;;;13.00;9.02;;;9.70;64.60;;;5.05;100.00;94314.03;4989292;23;20054;-52
2024/03/04 00:12:59;;;;;;;12.57;8.60;;;9.70;64.70;;;5.09;100.00;94325.63;4972038;28;20034;-51
2024/03/04 00:15:25;;;;;;;12.50;8.30;;;9.80;64.90;;;5.17;100.00;94327.78;4972651;28;20030;-49
2024/03/04 00:17:51;;;;;;;13.35;7.65;;;9.80;64.80;;;5.17;100.00;94333.06;4973158;28;20030;-50
2024/03/04 00:20:18;;;;;;;16.13;8.60;;;9.80;64.90;;;5.24;100.00;94346.81;4973304;28;20117;-50
2024/03/04 00:22:47;;;;;;;11.93;8.23;;;9.90;64.90;;;5.23;100.00;94347.88;4973740;28;20057;-49
2024/03/04 00:25:16;;;;;;;11.85;7.90;;;9.90;64.90;;;5.28;100.00;94355.78;4971878;28;20037;-49
2024/03/04 00:27:51;;;;;;;13.80;7.82;;;9.90;65.00;;;5.30;100.00;94355.53;4972894;28;20481;-53
2024/03/04 00:30:17;;;;;;;13.88;7.47;;;10.00;64.90;;;5.32;100.00;94351.56;4955358;28;20030;-49
2024/03/04 00:32:44;;;;;;;12.25;8.15;;;10.00;64.90;;;5.36;100.00;94357.13;4973135;28;20064;-49
2024/03/04 00:35:12;;;;;;;12.38;7.50;;;10.00;64.80;;;5.41;100.00;94364.25;4972719;28;20025;-50
2024/03/04 00:37:41;;;;;;;11.55;7.50;;;10.00;64.80;;;5.42;100.00;94363.19;4970603;28;20530;-52
2024/03/04 00:40:08;;;;;;;11.38;7.75;;;10.10;65.00;;;5.38;100.00;94359.50;4972077;28;20030;-50
2024/03/04 00:42:37;;;;;;;12.68;7.22;;;10.10;64.90;;;5.44;100.00;94355.81;4972076;28;20054;-53
2024/03/04 00:45:05;;;;;;;15.55;7.95;;;10.10;64.90;;;5.41;100.00;94367.69;4972363;28;20050;-50
2024/03/04 00:47:34;;;;;;;10.93;7.40;;;10.10;64.80;;;5.47;100.00;94379.84;4972941;28;20065;-49
2024/03/04 00:50:03;;;;;;;14.20;8.02;;;10.20;64.70;;;5.43;100.00;94375.38;4971101;28;20034;-50
2024/03/04 00:52:29;;;;;;;10.23;7.32;;;10.20;64.90;;;5.47;100.00;94381.69;4972438;28;20057;-51
2024/03/04 00:54:56;;;;;;;11.63;7.57;;;10.20;64.90;;;5.50;100.00;94386.47;4971611;28;20537;-49
2024/03/04 00:57:22;;;;;;;12.25;7.28;;;10.20;64.90;;;5.50;100.00;94384.59;4972374;28;20046;-51
2024/03/04 00:59:48;;;;;;;11.98;7.43;;;10.20;64.90;;;5.51;100.00;94388.03;4971174;28;20030;-51
2024/03/04 01:02:14;;;;;;;9.40;6.65;;;10.20;64.80;;;5.56;100.00;94380.13;4973720;28;20018;-50
2024/03/04 01:04:41;;;;;;;11.40;7.15;;;10.20;64.70;;;5.55;100.00;94381.97;4972145;28;20026;-50
2024/03/04 01:07:07;;;;;;;10.63;6.90;;;10.30;64.90;;;5.55;100.00;94383.84;4970776;28;20029;-49
2024/03/04 01:09:33;;;;;;;10.52;6.55;;;10.30;64.90;;;5.55;100.00;94384.63;4972249;28;20038;-52
2024/03/04 01:11:58;;;;;;;11.18;6.88;;;10.30;64.90;;;5.55;100.00;94383.84;4970574;28;20108;-52
2024/03/04 01:14:24;;;;;;;10.23;6.40;;;10.20;65.60;;;5.50;100.00;94379.31;4971873;28;20030;-51
2024/03/04 01:16:50;;;;;;;9.70;6.68;;;10.30;65.00;;;5.50;100.00;94389.09;4969518;28;20374;-49
2024/03/04 01:19:17;;;;;;;10.38;7.30;;;10.30;65.00;;;5.51;100.00;94399.38;4970505;28;20474;-49
2024/03/04 01:21:43;;;;;;;8.82;6.75;;;10.30;65.00;;;5.54;100.00;94398.88;4963802;28;20366;-50
2024/03/04 01:24:12;;;;;;;9.18;6.55;;;10.30;65.00;;;5.56;100.00;94402.06;4969399;28;20492;-49
2024/03/04 01:26:37;;;;;;;10.63;7.20;;;10.30;65.00;;;5.55;100.00;94405.75;4955225;28;20029;-49
2024/03/04 01:29:04;;;;;;;10.35;6.40;;;10.30;65.00;;;5.58;100.00;94404.44;4970353;28;20022;-49
2024/03/04 01:31:30;;;;;;;10.90;6.57;;;10.30;64.90;;;5.63;100.00;94404.44;4971024;28;20019;-49
2024/03/04 01:33:56;;;;;;;12.80;6.38;;;10.30;64.80;;;5.66;100.00;94396.00;4971510;28;20416;-50
2024/03/04 01:36:22;;;;;;;9.75;6.32;;;10.30;64.80;;;5.65;100.00;94394.41;4968385;28;20022;-49
2024/03/04 01:38:48;;;;;;;9.00;6.55;;;10.30;64.80;;;5.65;100.00;94388.34;4971528;28;20077;-49
2024/03/04 01:41:14;;;;;;;11.23;6.63;;;10.30;64.70;;;5.64;100.00;94389.38;4969614;28;20022;-49
2024/03/04 01:43:39;;;;;;;11.45;7.00;;;10.30;64.70;;;5.65;100.00;94388.34;4970819;28;20036;-49
2024/03/04 01:46:09;;;;;;;10.25;6.75;;;10.30;64.60;;;5.63;100.00;94388.59;4971241;28;20041;-50
2024/03/04 01:48:37;;;;;;;13.52;7.43;;;10.30;64.60;;;5.66;100.00;94401.28;4970247;28;20206;-51
2024/03/04 01:51:04;;;;;;;9.82;6.47;;;10.40;64.70;;;5.68;100.00;94409.75;4970005;28;20451;-49
2024/03/04 01:53:31;;;;;;;10.15;6.53;;;10.40;64.60;;;5.64;100.00;94411.34;4971078;28;20469;-50
2024/03/04 01:56:04;;;;;;;9.85;6.30;;;10.40;64.60;;;5.67;100.00;94415.28;4970704;28;20029;-54
2024/03/04 01:58:44;;;;;;;12.02;7.25;;;10.40;64.80;;;5.68;100.00;94416.88;4970277;28;20085;-53
2024/03/04 02:01:11;;;;;;;9.45;6.47;;;10.40;64.60;;;5.67;100.00;94415.28;4969696;28;20085;-55
2024/03/04 02:03:39;;;;;;;10.60;6.65;;;10.40;64.40;;;5.67;100.00;94415.28;4954210;28;20033;-52
2024/03/04 02:06:08;;;;;;;9.82;6.25;;;10.40;64.80;;;5.68;100.00;94414.25;4969873;28;20115;-54
2024/03/04 02:08:35;;;;;;;9.93;6.13;;;10.40;65.20;;;5.69;100.00;94418.47;4971299;28;20041;-53
2024/03/04 02:11:03;;;;;;;11.57;6.35;;;10.40;64.40;;;5.69;100.00;94424.53;4969231;28;20100;-57
2024/03/04 02:13:36;;;;;;;10.13;6.70;;;10.40;64.30;;;5.66;100.00;94429.56;4968702;28;20030;-55
2024/03/04 02:16:03;;;;;;;9.80;5.95;;;10.40;64.30;;;5.67;100.00;94425.84;4971132;28;20025;-52
2024/03/04 02:18:28;;;;;;;10.57;6.28;;;10.40;64.20;;;5.68;100.00;94427.44;4970208;28;20493;-51
2024/03/04 02:21:02;;;;;;;8.20;5.90;;;10.40;64.20;;;5.69;100.00;94429.03;4970523;28;20041;-49
2024/03/04 02:23:28;;;;;;;9.02;6.15;;;10.40;64.30;;;5.66;100.00;94424.25;4952866;28;20044;-50
2024/03/04 02:25:57;;;;;;;8.70;5.95;;;10.40;64.20;;;5.63;100.00;94427.44;4970095;28;20038;-53
2024/03/04 02:28:28;;;;;;;10.75;6.70;;;10.40;64.10;;;5.64;100.00;94424.53;4968254;28;20077;-51
2024/03/04 02:31:00;;;;;;;8.40;6.10;;;10.40;64.10;;;5.61;100.00;94432.16;4969643;28;20026;-50
2024/03/04 02:33:28;;;;;;;10.15;6.68;;;10.40;64.20;;;5.64;100.00;94426.38;4968117;28;20030;-50
2024/03/04 02:35:54;;;;;;;10.75;7.05;;;10.40;64.10;;;5.52;100.00;94426.63;4952790;28;20085;-50
2024/03/04 02:38:21;;;;;;;10.90;6.63;;;10.40;64.10;;;5.44;100.00;94432.41;4969991;28;20033;-50
2024/03/04 02:40:48;;;;;;;11.80;6.85;;;10.30;64.10;;;5.37;100.00;94424.72;4969825;28;20388;-49
2024/03/04 02:43:15;;;;;;;12.05;7.63;;;10.30;64.10;;;5.28;100.00;94427.06;4967811;28;20022;-54
2024/03/04 02:45:41;;;;;;;12.52;7.43;;;10.30;64.20;;;5.30;100.00;94432.91;4970691;28;20113;-49
2024/03/04 02:48:07;;;;;;;9.82;6.63;;;10.20;64.10;;;5.28;100.00;94440.28;4969812;28;20041;-50
2024/03/04 02:50:33;;;;;;;11.85;7.55;;;10.20;64.30;;;5.27;100.00;94436.06;4968639;28;20499;-51
2024/03/04 02:53:02;;;;;;;13.48;7.03;;;10.10;64.30;;;5.24;100.00;94439.22;4970838;28;20033;-49
2024/03/04 02:55:28;;;;;;;12.30;7.00;;;10.10;64.40;;;5.24;100.00;94448.97;4968448;28;20030;-52
2024/03/04 02:57:54;;;;;;;12.30;6.85;;;10.10;64.40;;;5.24;100.00;94455.06;4970515;28;20049;-51
2024/03/04 03:00:20;;;;;;;12.13;7.35;;;10.00;64.40;;;5.28;100.00;94456.13;4969088;28;20033;-50
2024/03/04 03:02:46;;;;;;;12.30;7.55;;;10.00;64.50;;;5.24;100.00;94462.97;4969759;28;20026;-50
2024/03/04 03:05:12;;;;;;;14.95;7.47;;;10.00;64.50;;;5.20;100.00;94469.81;4969589;28;20038;-54
2024/03/04 03:07:38;;;;;;;12.27;7.40;;;10.00;64.60;;;5.16;100.00;94471.38;4969634;28;20612;-49
2024/03/04 03:10:05;;;;;;;11.43;7.10;;;10.00;64.60;;;5.19;100.00;94478.78;4969555;28;20057;-49
2024/03/04 03:12:31;;;;;;;10.65;7.15;;;10.00;64.60;;;5.21;100.00;94489.88;4967581;28;20358;-49
2024/03/04 03:14:57;;;;;;;9.93;6.95;;;10.00;64.70;;;5.20;100.00;94493.59;4973335;28;20029;-50
2024/03/04 03:17:26;;;;;;;11.38;6.97;;;10.00;64.70;;;5.18;100.00;94500.97;4972778;28;20022;-49
2024/03/04 03:19:52;;;;;;;11.02;7.00;;;10.00;64.80;;;5.17;100.00;94504.66;4968481;28;20038;-49
2024/03/04 03:22:19;;;;;;;12.75;7.22;;;10.00;64.70;;;5.15;100.00;94512.03;4974032;28;20023;-50
2024/03/04 03:24:44;;;;;;;11.68;7.07;;;10.00;64.80;;;5.18;100.00;94510.72;4969348;28;20034;-51
2024/03/04 03:27:11;;;;;;;11.75;6.93;;;10.00;64.80;;;5.21;100.00;94518.13;4974223;28;20106;-49
2024/03/04 03:29:37;;;;;;;12.32;7.20;;;10.00;64.80;;;5.21;100.00;94526.06;4971831;28;20125;-54
2024/03/04 03:32:03;;;;;;;9.18;6.00;;;10.00;64.90;;;5.20;100.00;94525.28;4971710;28;20022;-53
2024/03/04 03:34:29;;;;;;;9.50;6.25;;;9.90;64.90;;;5.24;100.00;94530.84;4970232;28;20037;-49
2024/03/04 03:36:55;;;;;;;10.98;5.65;;;10.00;64.90;;;5.18;100.00;94531.84;4972845;28;20026;-54
2024/03/04 03:39:21;;;;;;;9.68;5.90;;;10.00;65.00;;;5.10;100.00;94536.53;4973689;28;20335;-54
2024/03/04 03:41:47;;;;;;;8.80;5.78;;;9.90;64.90;;;5.04;100.00;94539.41;4971477;28;20474;-51
2024/03/04 03:44:13;;;;;;;9.65;5.95;;;9.90;64.90;;;5.13;100.00;94545.00;4971352;28;20409;-55
2024/03/04 03:46:39;;;;;;;10.35;5.95;;;9.90;64.90;;;5.13;100.00;94550.28;4971579;28;20560;-49
2024/03/04 03:49:05;;;;;;;10.90;5.93;;;9.90;65.00;;;5.08;100.00;94545.78;4969961;28;20121;-51
2024/03/04 03:51:31;;;;;;;9.18;5.78;;;9.90;65.00;;;4.99;100.00;94544.69;4973359;28;20135;-49
2024/03/04 03:53:57;;;;;;;9.90;6.13;;;9.90;65.00;;;5.01;100.00;94547.84;4972015;28;20038;-49
2024/03/04 03:56:22;;;;;;;10.77;6.32;;;9.90;65.10;;;4.97;100.00;94544.91;4973573;28;20026;-49
2024/03/04 03:58:51;;;;;;;9.02;5.75;;;9.80;65.00;;;4.88;100.00;94549.88;4968773;28;20076;-51
2024/03/04 04:01:18;;;;;;;11.00;6.40;;;9.80;65.20;;;4.92;100.00;94552.00;4972478;28;20436;-49
2024/03/04 04:03:43;;;;;;;8.73;5.82;;;9.80;65.10;;;4.96;100.00;94559.16;4973463;28;20030;-49
2024/03/04 04:06:09;;;;;;;7.85;5.57;;;9.80;65.20;;;4.94;100.00;94561.25;4972387;28;20650;-52
2024/03/04 04:08:35;;;;;;;10.65;6.25;;;9.70;65.10;;;4.97;100.00;94563.41;4973274;28;20050;-51
2024/03/04 04:11:03;;;;;;;9.98;6.47;;;9.70;65.20;;;4.93;100.00;94567.59;4973393;28;20077;-49
2024/03/04 04:13:29;;;;;;;8.95;5.93;;;9.70;65.20;;;4.85;100.00;94574.13;4966567;28;20021;-50
2024/03/04 04:15:54;;;;;;;8.10;5.75;;;9.70;65.20;;;4.77;100.00;94568.53;4973431;28;20113;-49
2024/03/04 04:18:20;;;;;;;8.85;5.63;;;9.70;65.30;;;4.78;100.00;94576.19;4972225;28;20022;-49
2024/03/04 04:20:46;;;;;;;8.02;5.80;;;9.70;65.30;;;4.80;100.00;94582.03;4973287;28;20481;-49
2024/03/04 04:23:12;;;;;;;8.10;5.72;;;9.70;65.30;;;4.81;100.00;94591.50;4973373;28;20038;-52
2024/03/04 04:25:39;;;;;;;9.27;6.28;;;9.60;65.30;;;4.80;100.00;94595.22;4971968;28;20084;-50
2024/03/04 04:28:05;;;;;;;9.75;6.22;;;9.60;65.40;;;4.79;100.00;94593.59;4972675;28;20104;-49
2024/03/04 04:30:33;;;;;;;9.70;6.20;;;9.60;65.40;;;4.83;100.00;94597.34;4972405;28;20104;-55
2024/03/04 04:33:00;;;;;;;10.48;6.43;;;9.60;65.40;;;4.77;100.00;94600.19;4973214;28;20026;-51
2024/03/04 04:35:26;;;;;;;10.55;6.40;;;9.60;65.50;;;4.73;100.00;94601.72;4972892;28;20141;-49
2024/03/04 04:37:52;;;;;;;8.73;5.85;;;9.60;65.40;;;4.72;100.00;94600.94;4971924;28;20540;-50
2024/03/04 04:40:21;;;;;;;8.52;6.05;;;9.60;65.50;;;4.72;100.00;94611.50;4972757;28;20028;-53
2024/03/04 04:42:47;;;;;;;9.20;5.65;;;9.60;65.50;;;4.76;100.00;94611.78;4972245;28;20022;-49
2024/03/04 04:45:13;;;;;;;10.80;5.57;;;9.60;65.50;;;4.73;100.00;94610.47;4972999;28;20057;-49
2024/03/04 04:47:39;;;;;;;7.97;5.53;;;9.60;65.50;;;4.72;100.00;94608.84;4972859;28;20113;-50
2024/03/04 04:50:06;;;;;;;8.98;5.68;;;9.60;65.80;;;4.71;100.00;94623.09;4971323;28;20544;-50
2024/03/04 04:52:32;;;;;;;8.13;5.38;;;9.50;65.50;;;4.73;100.00;94618.38;4973185;28;20164;-53
2024/03/04 04:54:58;;;;;;;7.88;5.47;;;9.50;65.50;;;4.68;100.00;94615.69;4972247;28;20105;-50
2024/03/04 04:57:26;;;;;;;7.38;5.07;;;9.50;65.50;;;4.69;100.00;94622.53;4971790;28;20023;-53
2024/03/04 04:59:52;;;;;;;8.23;5.40;;;9.60;65.50;;;4.70;100.00;94620.69;4971409;28;20802;-52
2024/03/04 05:02:17;;;;;;;8.65;5.70;;;9.50;65.40;;;4.60;100.00;94629.31;4966270;28;20037;-49
2024/03/04 05:04:44;;;;;;;11.65;5.80;;;9.50;65.40;;;4.61;100.00;94626.44;4966391;28;20045;-52
2024/03/04 05:07:10;;;;;;;8.40;5.35;;;9.50;65.40;;;4.69;100.00;94634.94;4966553;28;20609;-49
2024/03/04 05:09:36;;;;;;;9.32;5.65;;;9.50;65.40;;;4.72;100.00;94629.97;4964781;28;20041;-51
2024/03/04 05:12:02;;;;;;;7.90;5.35;;;9.50;65.50;;;4.76;100.00;94636.31;4966244;28;20054;-56
2024/03/04 05:14:28;;;;;;;7.97;5.75;;;9.50;65.50;;;4.76;100.00;94635.53;4971035;28;20026;-50
2024/03/04 05:16:55;;;;;;;8.82;6.00;;;9.50;65.40;;;4.73;100.00;94636.03;4967516;28;20034;-51
2024/03/04 05:19:23;;;;;;;10.73;6.20;;;9.50;65.40;;;4.73;100.00;94628.09;4969602;28;20038;-51
2024/03/04 05:21:50;;;;;;;8.52;5.65;;;9.50;65.40;;;4.73;100.00;94636.84;4969082;28;20045;-50
2024/03/04 05:24:16;;;;;;;7.97;6.05;;;9.50;65.30;;;4.71;100.00;94636.28;4969761;28;20088;-52
2024/03/04 05:26:43;;;;;;;8.23;6.40;;;9.50;65.30;;;4.74;100.00;94642.91;4972091;28;20061;-49
2024/03/04 05:29:09;;;;;;;9.32;6.47;;;9.50;65.30;;;4.69;100.00;94638.38;4970005;28;20022;-53
2024/03/04 05:31:50;;;;;;;8.98;6.57;;;9.50;65.30;;;4.64;100.00;94640.97;4967993;28;20022;-53
2024/03/04 05:34:16;;;;;;;9.40;5.97;;;9.50;65.20;;;4.61;100.00;94647.56;4956259;28;20022;-51
2024/03/04 05:36:45;;;;;;;9.77;6.65;;;9.50;65.20;;;4.62;100.00;94646.50;4970351;28;20104;-51
2024/03/04 05:39:11;;;;;;;8.77;5.60;;;9.50;65.30;;;4.62;100.00;94653.63;4967559;28;20049;-52
2024/03/04 05:41:40;;;;;;;8.32;5.57;;;9.50;65.20;;;4.66;100.00;94659.97;4970118;28;20389;-49
2024/03/04 05:44:06;;;;;;;8.75;6.10;;;9.50;65.30;;;4.68;100.00;94667.66;4970553;28;20056;-52
2024/03/04 05:46:32;;;;;;;9.15;6.50;;;9.50;65.30;;;4.70;100.00;94670.81;4969225;28;20054;-56
2024/03/04 05:48:57;;;;;;;9.60;6.00;;;9.50;65.30;;;4.72;100.00;94671.38;4969822;28;20038;-50
2024/03/04 05:51:23;;;;;;;8.52;6.35;;;9.50;65.30;;;4.73;100.00;94672.97;4966911;28;20026;-54
2024/03/04 05:53:49;;;;;;;10.20;6.13;;;9.50;65.30;;;4.75;100.00;94679.59;4971471;28;20046;-57
2024/03/04 05:56:15;;;;;;;9.30;6.65;;;9.50;65.30;;;4.70;100.00;94684.00;4970792;28;20026;-52
2024/03/04 05:58:41;;;;;;;13.65;7.05;;;9.60;65.40;;;4.69;100.00;94685.84;4967765;28;20535;-53
2024/03/04 06:01:08;;;;;;;9.10;6.28;;;9.50;65.20;;;4.72;100.00;94688.00;4965821;28;20038;-52
2024/03/04 06:03:34;;;;;;;10.88;5.95;;;9.50;65.20;;;4.62;100.00;94690.53;4969100;28;20033;-56
2024/03/04 06:06:00;;;;;;;9.00;5.70;;;9.50;65.20;;;4.56;100.00;94697.59;4971206;28;20042;-51
2024/03/04 06:08:26;;;;;;;7.85;5.40;;;9.50;65.10;;;4.53;100.00;94705.22;4969193;28;20036;-53
2024/03/04 06:10:51;;;;;;;10.77;7.00;;;9.50;65.00;;;4.49;100.00;94707.56;4980438;23;20046;-56
2024/03/04 06:13:17;;;;;;;9.00;5.68;;;9.50;65.10;;;4.51;100.00;94705.47;4953524;28;20054;-57
2024/03/04 06:15:43;;;;;;;8.98;6.28;;;9.50;65.10;;;4.51;100.00;94705.47;4956654;28;20121;-56
2024/03/04 06:18:09;;;;;;;8.85;5.75;;;9.40;65.10;;;4.54;100.00;94710.22;4962207;28;20117;-59
2024/03/04 06:20:35;;;;;;;8.80;5.95;;;9.40;65.10;;;4.55;100.00;94705.78;4941330;28;20036;-57
2024/03/04 06:23:01;;;;;;;10.18;7.03;;;9.40;65.10;;;4.57;100.00;94715.00;4957836;28;20022;-59
2024/03/04 06:25:26;;;;;;;10.45;6.13;;;9.40;65.10;;;4.60;100.00;94713.72;4951058;28;20572;-59
2024/03/04 06:27:52;;;;;;;11.02;6.53;;;9.40;65.20;;;4.64;100.00;94720.13;4956643;28;20026;-56
2024/03/04 06:30:18;;;;;;;9.77;6.07;;;9.50;65.30;;;4.67;100.00;94722.25;4954177;28;20074;-55
2024/03/04 06:32:44;;;;;;;9.02;6.13;;;9.50;65.30;;;4.64;100.00;94722.75;4955380;28;20117;-55
2024/03/04 06:35:10;;;;;;;10.05;6.30;;;9.50;65.20;;;4.68;100.00;94723.06;4956332;28;20113;-54
2024/03/04 06:37:36;;;;;;;10.48;6.72;;;9.50;65.20;;;4.68;100.00;94720.41;4951194;28;20018;-57
2024/03/04 06:40:02;;;;;;;9.57;6.10;;;9.50;65.20;;;4.66;100.00;94719.84;4952569;28;20362;-55
2024/03/04 06:42:28;;;;;;;8.43;5.80;;;9.60;65.20;;;4.67;100.00;94714.34;4951045;28;20027;-59
2024/03/04 06:44:54;;;;;;;7.60;5.22;;;9.60;65.10;;;4.67;100.00;94724.91;4952454;28;20474;-57
2024/03/04 06:47:20;;;;;;;8.57;6.22;;;9.60;65.00;;;4.72;100.00;94732.84;4958144;28;20105;-55
2024/03/04 06:49:48;;;;;;;9.18;6.13;;;9.60;65.00;;;4.73;100.00;94729.19;4952717;28;20093;-56
2024/03/04 06:52:14;;;;;;;9.18;6.25;;;9.60;65.00;;;4.73;100.00;94733.66;4935232;28;20018;-54
2024/03/04 06:54:40;;;;;;;8.82;5.60;;;9.70;65.10;;;4.72;100.00;94738.13;4933667;29;20097;-57
2024/03/04 06:57:05;;;;;;;9.10;5.95;;;9.60;64.90;;;4.69;100.00;94741.25;4955611;28;20022;-55
2024/03/04 06:59:31;;;;;;;9.80;5.82;;;9.70;65.00;;;4.73;100.00;94746.84;4947588;28;20030;-59
2024/03/04 07:01:57;;;;;;;10.43;6.30;;;9.70;64.90;;;4.78;100.00;94752.97;4953697;28;20030;-58
2024/03/04 07:04:23;;;;;;;8.00;5.47;;;9.70;64.90;;;4.78;100.00;94755.59;4950550;28;20105;-57
2024/03/04 07:06:49;;;;;;;9.30;5.55;;;9.70;64.90;;;4.82;100.00;94753.28;4955122;28;20018;-57
2024/03/04 07:09:14;;;;;;;8.25;5.88;;;9.70;64.90;;;4.83;100.00;94755.69;4948159;28;20476;-56
2024/03/04 07:11:40;;;;;;;8.68;5.57;;;9.70;64.80;;;4.84;100.00;94759.09;4953212;28;20065;-57
2024/03/04 07:14:06;;;;;;;8.68;5.70;;;9.70;64.70;;;4.84;100.00;94769.66;4941338;28;20034;-59
2024/03/04 07:16:32;;;;;;;8.30;5.57;;;9.80;64.70;;;4.88;100.00;94768.91;4946310;28;20046;-56
2024/03/04 07:18:59;;;;;;;8.57;6.22;;;9.80;64.70;;;4.91;100.00;94764.19;4942981;28;20031;-57
2024/03/04 07:21:24;;;;;;;10.25;6.45;;;9.80;64.70;;;4.98;100.00;94770.88;4950856;28;20086;-58
2024/03/04 07:23:50;;;;;;;9.20;6.20;;;9.90;64.70;;;5.01;100.00;94773.00;4954757;28;20026;-57
2024/03/04 07:26:20;;;;;;;7.93;5.57;;;9.90;64.70;;;5.00;100.00;94773.25;4952624;28;20045;-59
2024/03/04 07:28:46;;;;;;;10.07;6.07;;;10.00;64.60;;;5.05;100.00;94773.31;4943559;28;20049;-58
2024/03/04 07:31:12;;;;;;;9.63;6.50;;;10.00;64.50;;;5.01;100.00;94773.00;4945498;28;20059;-55
2024/03/04 07:33:37;;;;;;;8.68;6.15;;;10.00;64.40;;;5.05;100.00;94778.59;4935510;29;20022;-58
2024/03/04 07:36:05;;;;;;;10.90;6.45;;;10.00;64.40;;;5.09;100.00;94782.31;4928343;28;20026;-58
2024/03/04 07:38:30;;;;;;;10.45;6.20;;;10.10;64.40;;;5.12;100.00;94795.03;4949708;28;20026;-58
2024/03/04 07:40:56;;;;;;;8.82;6.10;;;10.10;64.40;;;5.13;100.00;94785.25;4953626;28;20022;-59
2024/03/04 07:43:22;;;;;;;10.50;6.32;;;10.20;64.40;;;5.13;100.00;94788.69;4929366;28;20030;-59
2024/03/04 07:45:48;;;;;;;8.82;6.15;;;10.20;64.30;;;5.18;100.00;94794.03;4950993;28;20468;-55
2024/03/04 07:48:14;;;;;;;10.23;6.00;;;10.20;64.20;;;5.22;100.00;94796.97;4948181;28;20445;-58
2024/03/04 07:50:40;;;;;;;8.63;6.40;;;10.30;64.20;;;5.25;100.00;94785.91;4932717;29;20109;-58
2024/03/04 07:53:07;;;;;;;9.10;6.22;;;10.30;64.10;;;5.29;100.00;94789.63;4943478;28;20114;-54
2024/03/04 07:55:33;;;;;;;9.95;6.50;;;10.40;64.10;;;5.37;100.00;94785.75;4949292;28;20030;-58
2024/03/04 07:57:59;;;;;;;11.13;6.05;;;10.40;64.00;;;5.43;100.00;94798.75;4951403;28;20496;-58
2024/03/04 08:00:25;;;;;;;10.00;7.10;;;10.50;64.00;;;5.46;100.00;94805.38;4947468;28;20109;-59
2024/03/04 08:02:50;;;;;;;9.15;6.28;;;10.50;63.80;;;5.49;100.00;94791.66;4947854;28;20030;-59
2024/03/04 08:05:16;;;;;;;10.00;6.05;;;10.60;63.80;;;5.42;100.00;94796.34;4956403;28;20069;-59
2024/03/04 08:07:42;;;;;;;9.50;6.10;;;10.70;63.60;;;5.45;100.00;94795.84;4952714;28;20034;-58
2024/03/04 08:10:09;;;;;;;9.35;6.05;;;10.70;63.40;;;5.49;100.00;94796.94;4941391;28;20033;-59
2024/03/04 08:12:36;;;;;;;9.80;6.30;;;10.70;63.30;;;5.54;100.00;94804.91;4928461;28;20049;-59
2024/03/04 08:15:04;;;;;;;10.27;6.13;;;10.70;63.20;;;5.61;100.00;94810.78;4927312;28;20043;-53
2024/03/04 08:17:32;;;;;;;10.05;5.82;;;10.70;63.20;;;5.60;100.00;94811.03;4931379;28;20049;-58
2024/03/04 08:20:04;;;;;;;8.90;6.13;;;10.80;63.30;;;5.65;100.00;94819.00;4935334;28;20106;-57
2024/03/04 08:22:34;;;;;;;;;;;10.80;63.20;;;5.67;100.00;94820.34;4945173;28;20022;-58
2024/03/04 08:25:00;;;;;;;9.35;6.32;;;10.70;63.00;;;5.66;100.00;94820.59;4924403;28;19914;-58
2024/03/04 08:27:25;;;;;;;10.15;6.43;;;10.80;63.00;;;5.70;100.00;94822.50;4938863;28;20466;-58
2024/03/04 08:29:51;;;;;;;10.18;6.45;;;10.80;62.90;;;5.71;100.00;94825.94;4940390;28;20129;-57
2024/03/04 08:32:17;;;;;;;10.68;6.80;;;10.80;62.90;;;5.70;100.00;94827.78;4932340;28;20393;-56
2024/03/04 08:34:50;;;;;;;8.05;5.90;;;10.80;62.80;;;5.76;100.00;94831.25;4923221;29;20038;-57
2024/03/04 08:37:16;;;;;;;9.40;6.60;;;10.90;62.80;;;5.76;100.00;94831.25;4934225;28;20063;-56
2024/03/04 08:39:42;;;;;;;11.30;7.60;;;10.90;62.70;;;5.80;100.00;94832.34;4936209;28;20031;-59
2024/03/04 08:42:08;;;;;;;11.90;7.65;;;10.90;62.70;;;5.85;100.00;94831.56;4940652;28;20082;-57
2024/03/04 08:44:33;;;;;;;10.23;7.20;;;10.90;62.60;;;5.87;100.00;94840.84;4940616;28;20490;-59
2024/03/04 08:46:59;;;;;;;11.07;7.05;;;10.90;62.60;;;5.89;100.00;94846.69;4940661;28;20018;-59
2024/03/04 08:49:25;;;;;;;10.85;6.88;;;11.00;62.60;;;5.88;100.00;94854.88;4935250;28;20030;-56
2024/03/04 08:51:51;;;;;;;9.82;6.93;;;11.00;62.50;;;5.95;100.00;94852.81;4937320;28;20027;-57
2024/03/04 08:54:17;;;;;;;11.05;7.18;;;11.00;62.50;;;6.02;100.00;94856.88;4938732;28;20413;-58
2024/03/04 08:56:43;;;;;;;8.70;6.65;;;11.10;62.40;;;6.03;100.00;94855.00;4943904;28;20019;-59
2024/03/04 08:59:09;;;;;;;8.35;6.43;;;11.20;62.40;;;6.07;100.00;94864.03;4940578;28;20035;-59
2024/03/04 09:01:35;;;;;;;9.77;7.03;;;11.20;62.30;;;5.99;100.00;94867.16;4939937;28;20082;-56
2024/03/04 09:04:01;;;;;;;12.48;6.78;;;11.20;62.10;;;6.06;100.00;94873.03;4936592;28;20018;-59
2024/03/04 09:06:27;;;;;;;11.27;7.55;;;11.20;62.10;;;6.06;100.00;94872.22;4932046;28;20143;-59
2024/03/04 09:08:53;;;;;;;9.73;6.90;;;11.30;62.00;;;6.14;100.00;94872.56;4941101;28;20034;-59
2024/03/04 09:11:19;;;;;;;11.57;7.25;;;11.30;62.00;;;6.16;100.00;94878.38;4943764;28;20042;-56
2024/03/04 09:13:45;;;;;;;8.98;6.47;;;11.30;61.90;;;6.19;100.00;94877.06;4956179;28;20358;-54
2024/03/04 09:16:14;;;;;;;11.45;7.10;;;11.30;61.80;;;6.20;100.00;94881.31;4960771;28;20054;-58
2024/03/04 09:18:40;;;;;;;10.00;7.47;;;11.30;61.80;;;6.21;100.00;94885.56;4954065;28;20046;-59
2024/03/04 09:21:08;;;;;;;13.02;7.85;;;11.40;61.60;;;6.19;100.00;94888.44;4939986;28;20077;-59
2024/03/04 09:23:34;;;;;;;10.95;7.95;;;11.40;61.50;;;6.25;100.00;94891.94;4950802;28;20026;-58
2024/03/04 09:26:00;;;;;;;11.75;7.43;;;11.40;61.60;;;6.22;100.00;94893.22;4955054;28;20488;-59
2024/03/04 09:28:26;;;;;;;12.38;7.28;;;11.40;61.50;;;6.24;100.00;94898.28;4961861;28;20033;-59
2024/03/04 09:30:52;;;;;;;11.45;7.05;;;11.40;61.50;;;6.28;100.00;94899.34;4962645;28;20037;-59
2024/03/04 09:33:18;;;;;;;10.95;6.93;;;11.40;61.50;;;6.32;100.00;94899.66;4960560;28;20037;-57
2024/03/04 09:35:44;;;;;;;10.43;7.00;;;11.40;61.40;;;6.28;100.00;94902.00;4955599;28;20035;-57
2024/03/04 09:38:11;;;;;;;11.63;7.90;;;11.40;61.40;;;6.26;100.00;94899.59;4959390;28;20087;-57
2024/03/04 09:40:37;;;;;;;10.57;7.60;;;11.50;61.30;;;6.31;100.00;94906.00;4956893;28;20034;-58
2024/03/04 09:43:04;;;;;;;10.57;7.20;;;11.50;61.20;;;6.24;100.00;94906.22;4956773;28;20517;-54
2024/03/04 09:45:32;;;;;;;11.35;7.70;;;11.50;61.10;;;6.25;100.00;94898.00;4960333;28;20126;-56
2024/03/04 09:48:00;;;;;;;12.38;8.18;;;11.50;61.10;;;6.26;100.00;94912.81;4953246;28;20113;-54
2024/03/04 09:50:26;;;;;;;11.48;7.70;;;11.50;61.10;;;6.31;100.00;94906.00;4942538;28;20057;-58
2024/03/04 09:52:58;;;;;;;13.02;8.38;;;11.50;61.10;;;6.28;100.00;94909.94;4960144;28;20525;-57
2024/03/04 09:55:24;;;;;;;13.07;8.27;;;11.50;61.10;;;6.18;100.00;94908.00;4938201;28;20495;-58
2024/03/04 09:57:50;;;;;;;11.00;7.65;;;11.40;61.00;;;6.24;100.00;94904.38;4958710;28;20806;-58
2024/03/04 10:00:18;;;;;;;12.75;8.10;;;11.40;61.00;;;6.26;100.00;94907.53;4963269;28;20047;-57
2024/03/04 10:02:45;;;;;;;11.10;7.72;;;11.50;61.00;;;6.30;100.00;94907.03;4965093;28;20018;-57
2024/03/04 10:05:14;;;;;;;11.73;8.20;;;11.50;61.00;;;6.28;100.00;94906.50;4944150;28;20484;-56
2024/03/04 10:07:41;;;;;;;14.77;8.55;;;11.60;61.10;;;6.29;100.00;94916.03;4960948;28;20050;-55
2024/03/04 10:10:14;;;;;;;17.08;7.95;;;11.60;61.00;;;6.38;100.00;94911.84;4963151;28;20432;-59
2024/03/04 10:12:40;;;;;;;15.13;7.88;;;11.70;61.80;;;6.46;100.00;94912.19;4956193;28;20050;-59
2024/03/04 10:15:11;;;;;;;11.75;7.90;;;11.80;60.90;;;6.45;100.00;94912.44;4961328;28;20039;-58